createdAt,value
2023-02-28T00:00:38.035Z,1.95
2023-02-28T00:05:39.575Z,1.94
2023-02-28T00:10:41.137Z,1.93
2023-02-28T00:15:42.650Z,1.91
2023-02-28T00:20:44.158Z,1.92
2023-02-28T00:25:45.798Z,1.89
2023-02-28T00:30:47.890Z,1.90
2023-02-28T00:35:49.800Z,1.86
2023-02-28T00:40:51.462Z,1.83
2023-02-28T00:45:53.043Z,1.80
2023-02-28T00:50:54.815Z,1.78
2023-02-28T00:55:56.332Z,1.76
2023-02-28T01:00:57.908Z,1.74
2023-02-28T01:05:59.685Z,1.73
2023-02-28T01:11:09.534Z,1.71
2023-02-28T01:16:11.166Z,1.69
2023-02-28T01:21:15.840Z,1.67
2023-02-28T01:26:22.223Z,1.63
2023-02-28T01:31:24.904Z,1.60
2023-02-28T01:36:26.631Z,1.59
2023-02-28T01:41:32.160Z,1.56
2023-02-28T01:46:36.612Z,1.53
2023-02-28T01:51:54.035Z,1.51
2023-02-28T01:56:59.091Z,1.47
2023-02-28T02:02:01.498Z,1.44
2023-02-28T02:07:03.717Z,1.40
2023-02-28T02:12:31.664Z,1.37
2023-02-28T02:17:39.528Z,1.34
2023-02-28T02:23:09.100Z,1.29
2023-02-28T02:28:44.702Z,1.25
2023-02-28T02:34:27.163Z,1.17
2023-02-28T02:39:41.854Z,1.13
2023-02-28T02:44:58.014Z,1.09
2023-02-28T02:50:05.640Z,1.06
2023-02-28T02:55:12.057Z,1.02
2023-02-28T03:00:16.698Z,0.98
2023-02-28T03:05:29.504Z,0.98
2023-02-28T03:10:41.252Z,0.99
2023-02-28T03:15:56.724Z,1.01
2023-02-28T03:21:21.538Z,1.02
2023-02-28T03:26:26.696Z,1.02
2023-02-28T03:31:34.276Z,1.00
2023-02-28T03:36:46.882Z,1.00
2023-02-28T03:41:58.578Z,0.92
2023-02-28T03:47:18.717Z,0.89
2023-02-28T03:52:24.508Z,0.89
2023-02-28T03:57:41.059Z,0.90
2023-02-28T04:02:42.659Z,0.90
2023-02-28T04:07:44.161Z,0.86
2023-02-28T04:12:45.639Z,0.83
2023-02-28T04:17:47.178Z,0.76
2023-02-28T04:22:48.720Z,0.65
2023-02-28T04:27:50.181Z,0.55
2023-02-28T04:32:51.665Z,0.49
2023-02-28T04:37:53.233Z,0.47
2023-02-28T04:42:54.731Z,0.32
2023-02-28T04:47:56.268Z,0.29
2023-02-28T04:52:57.847Z,0.22
2023-02-28T04:57:59.336Z,0.21
2023-02-28T05:03:00.883Z,0.22
2023-02-28T05:08:02.430Z,0.24
2023-02-28T05:13:04.257Z,0.27
2023-02-28T05:18:05.837Z,0.31
2023-02-28T05:23:07.460Z,0.35
2023-02-28T05:28:09.199Z,0.40
2023-02-28T05:33:12.281Z,0.38
2023-02-28T05:38:13.818Z,0.36
2023-02-28T05:43:15.293Z,0.37
2023-02-28T05:48:17.789Z,0.41
2023-02-28T05:53:19.312Z,0.46
2023-02-28T05:58:21.875Z,0.48
2023-02-28T06:03:23.403Z,0.52
2023-02-28T06:08:24.946Z,0.55
2023-02-28T06:13:26.453Z,0.60
2023-02-28T06:18:28.313Z,0.61
2023-02-28T06:23:30.627Z,0.62
2023-02-28T06:28:33.127Z,0.64
2023-02-28T06:33:35.201Z,0.63
2023-02-28T06:38:37.442Z,0.65
2023-02-28T06:43:42.093Z,0.72
2023-02-28T06:48:45.684Z,0.77
2023-02-28T06:53:47.478Z,0.83
2023-02-28T06:58:50.715Z,0.86
2023-02-28T07:03:53.612Z,0.91
2023-02-28T07:08:55.628Z,0.99
2023-02-28T07:13:57.888Z,1.07
2023-02-28T07:18:59.728Z,1.14
2023-02-28T07:24:01.404Z,1.19
2023-02-28T07:29:03.257Z,1.32
2023-02-28T07:34:04.783Z,1.38
2023-02-28T07:39:06.283Z,1.50
2023-02-28T07:44:07.834Z,1.58
2023-02-28T07:49:09.425Z,1.68
2023-02-28T07:54:11.011Z,1.79
2023-02-28T07:59:12.715Z,1.86
2023-02-28T08:04:14.216Z,1.92
2023-02-28T08:09:15.775Z,2.01
2023-02-28T08:14:17.356Z,2.07
2023-02-28T08:19:18.964Z,2.19
2023-02-28T08:24:20.515Z,2.31
2023-02-28T08:29:22.462Z,2.44
2023-02-28T08:34:24.133Z,2.52
2023-02-28T08:39:25.795Z,2.60
2023-02-28T08:44:28.295Z,2.66
2023-02-28T08:49:29.887Z,2.76
2023-02-28T08:54:33.261Z,2.81
2023-02-28T08:59:34.867Z,2.94
2023-02-28T09:04:36.441Z,3.04
2023-02-28T09:09:38.092Z,3.14
2023-02-28T09:14:39.872Z,3.23
2023-02-28T09:19:41.536Z,3.32
2023-02-28T09:24:43.149Z,3.43
2023-02-28T09:29:44.727Z,3.55
2023-02-28T09:34:46.272Z,3.64
2023-02-28T09:39:48.110Z,3.75
2023-02-28T09:44:51.175Z,3.89
2023-02-28T09:49:53.204Z,4.02
2023-02-28T09:54:56.064Z,4.09
2023-02-28T10:00:12.889Z,4.23
2023-02-28T10:05:18.457Z,4.37
2023-02-28T10:10:25.480Z,4.50
2023-02-28T10:15:31.335Z,4.63
2023-02-28T10:20:41.061Z,4.73
2023-02-28T10:25:49.034Z,4.83
2023-02-28T10:30:53.006Z,4.91
2023-02-28T10:35:55.539Z,5.02
2023-02-28T10:41:11.612Z,5.14
2023-02-28T10:46:26.879Z,5.24
2023-02-28T10:51:37.589Z,5.30
2023-02-28T10:56:39.148Z,5.39
2023-02-28T11:01:42.342Z,5.50
2023-02-28T11:06:44.171Z,5.60
2023-02-28T11:11:48.235Z,5.68
2023-02-28T11:16:51.509Z,5.76
2023-02-28T11:22:00.396Z,5.88
2023-02-28T11:27:02.536Z,5.98
2023-02-28T11:32:23.847Z,6.11
2023-02-28T11:37:25.553Z,6.20
2023-02-28T11:42:47.109Z,6.31
2023-02-28T11:48:15.897Z,6.43
2023-02-28T11:53:17.730Z,6.55
2023-02-28T11:58:34.650Z,6.65
2023-02-28T12:03:59.150Z,6.76
2023-02-28T12:09:28.218Z,6.84
2023-02-28T12:14:43.456Z,6.90
2023-02-28T12:20:06.979Z,6.98
2023-02-28T12:25:08.708Z,7.05
2023-02-28T12:30:31.086Z,7.13
2023-02-28T12:35:42.039Z,7.22
2023-02-28T12:41:00.760Z,7.29
2023-02-28T12:46:12.251Z,7.35
2023-02-28T12:51:16.418Z,7.42
2023-02-28T12:56:25.873Z,7.54
2023-02-28T13:01:49.684Z,7.64
2023-02-28T13:07:10.300Z,7.63
2023-02-28T13:12:16.734Z,7.67
2023-02-28T13:17:22.175Z,7.77
2023-02-28T13:22:26.714Z,7.84
2023-02-28T13:27:41.414Z,7.89
2023-02-28T13:32:43.317Z,7.97
2023-02-28T13:37:46.016Z,8.04
2023-02-28T13:42:50.612Z,8.08
2023-02-28T13:48:26.320Z,8.15
2023-02-28T13:53:58.231Z,8.22
2023-02-28T13:59:13.711Z,8.23
2023-02-28T14:04:53.673Z,8.27
2023-02-28T14:10:09.676Z,8.35
2023-02-28T14:15:33.380Z,8.36
2023-02-28T14:20:35.448Z,8.22
2023-02-28T14:25:57.252Z,8.27
2023-02-28T14:31:08.855Z,8.34
2023-02-28T14:36:17.506Z,8.44
2023-02-28T14:41:32.307Z,8.57
2023-02-28T14:46:40.876Z,8.70
2023-02-28T14:51:43.319Z,8.71
2023-02-28T14:56:45.033Z,8.82
2023-02-28T15:01:46.893Z,8.92
2023-02-28T15:07:08.440Z,8.98
2023-02-28T15:12:15.355Z,9.06
2023-02-28T15:17:25.986Z,9.10
2023-02-28T15:22:36.945Z,9.11
2023-02-28T15:27:47.327Z,9.05
2023-02-28T15:33:21.664Z,9.09
2023-02-28T15:38:28.341Z,9.07
2023-02-28T15:43:32.473Z,9.03
2023-02-28T15:48:38.280Z,8.93
2023-02-28T15:53:50.820Z,8.83
2023-02-28T15:58:57.410Z,8.77
2023-02-28T16:04:03.872Z,8.70
2023-02-28T16:09:08.874Z,8.65
2023-02-28T16:14:16.688Z,8.57
2023-02-28T16:19:18.673Z,8.48
2023-02-28T16:24:20.298Z,8.34
2023-02-28T16:29:35.873Z,8.21
2023-02-28T16:34:37.404Z,8.09
2023-02-28T16:39:39.014Z,7.94
2023-02-28T16:44:41.261Z,7.78
2023-02-28T16:49:44.039Z,7.63
2023-02-28T16:54:45.619Z,7.47
2023-02-28T16:59:47.319Z,7.33
2023-02-28T17:04:48.886Z,7.18
2023-02-28T17:09:50.421Z,7.07
2023-02-28T17:14:51.922Z,6.93
2023-02-28T17:19:53.444Z,6.83
2023-02-28T17:24:58.554Z,6.73
2023-02-28T17:30:00.840Z,6.62
2023-02-28T17:35:02.354Z,6.49
2023-02-28T17:40:05.121Z,6.37
2023-02-28T17:45:07.132Z,6.27
2023-02-28T17:50:15.617Z,6.18
2023-02-28T17:55:17.408Z,6.08
2023-02-28T18:00:19.443Z,6.03
2023-02-28T18:05:21.054Z,5.95
2023-02-28T18:10:23.078Z,5.90
2023-02-28T18:15:24.720Z,5.84
2023-02-28T18:20:27.037Z,5.79
2023-02-28T18:25:28.576Z,5.74
2023-02-28T18:30:33.016Z,5.69
2023-02-28T18:35:35.129Z,5.67
2023-02-28T18:40:37.947Z,5.64
2023-02-28T18:45:39.902Z,5.60
2023-02-28T18:50:42.083Z,5.55
2023-02-28T18:55:43.916Z,5.49
2023-02-28T19:00:47.876Z,5.41
2023-02-28T19:05:50.743Z,5.33
2023-02-28T19:10:52.926Z,5.28
2023-02-28T19:16:01.969Z,5.21
2023-02-28T19:21:03.931Z,5.16
2023-02-28T19:26:10.720Z,5.11
2023-02-28T19:31:14.310Z,5.08
2023-02-28T19:36:16.141Z,5.03
2023-02-28T19:41:18.311Z,4.96
2023-02-28T19:46:20.225Z,4.82
2023-02-28T19:51:22.791Z,4.75
2023-02-28T19:56:24.629Z,4.67
2023-02-28T20:01:26.195Z,4.63
2023-02-28T20:06:28.040Z,4.59
2023-02-28T20:11:29.848Z,4.55
2023-02-28T20:16:32.453Z,4.50
2023-02-28T20:21:34.566Z,4.44
2023-02-28T20:26:37.155Z,4.42
2023-02-28T20:31:38.758Z,4.38
2023-02-28T20:36:40.347Z,4.32
2023-02-28T20:41:41.947Z,4.32
2023-02-28T20:46:43.815Z,4.29
2023-02-28T20:51:45.505Z,4.25
2023-02-28T20:56:47.530Z,4.20
2023-02-28T21:01:49.177Z,4.15
2023-02-28T21:06:51.951Z,4.12
2023-02-28T21:11:54.323Z,4.07
2023-02-28T21:16:55.893Z,4.03
2023-02-28T21:21:58.484Z,3.98
2023-02-28T21:27:01.171Z,3.93
2023-02-28T21:32:02.871Z,3.91
2023-02-28T21:37:05.801Z,3.89
2023-02-28T21:42:08.844Z,3.88
2023-02-28T21:47:10.538Z,3.86
2023-02-28T21:52:12.114Z,3.82
2023-02-28T21:57:14.173Z,3.80
2023-02-28T22:02:15.974Z,3.78
2023-02-28T22:07:18.180Z,3.76
2023-02-28T22:12:19.767Z,3.72
2023-02-28T22:17:21.271Z,3.67
2023-02-28T22:22:22.848Z,3.65
2023-02-28T22:27:24.356Z,3.65
2023-02-28T22:32:25.986Z,3.65
2023-02-28T22:37:27.524Z,3.58
2023-02-28T22:42:32.857Z,3.49
2023-02-28T22:47:34.434Z,3.45
2023-02-28T22:52:39.646Z,3.51
2023-02-28T22:57:41.236Z,3.57
2023-02-28T23:02:43.694Z,3.62
2023-02-28T23:07:46.063Z,3.65
2023-02-28T23:12:50.502Z,3.69
2023-02-28T23:17:52.094Z,3.72
2023-02-28T23:22:53.618Z,3.74
2023-02-28T23:27:55.136Z,3.75
2023-02-28T23:32:56.648Z,3.77
2023-02-28T23:38:02.612Z,3.78
2023-02-28T23:43:04.329Z,3.78
2023-02-28T23:48:06.292Z,3.77
2023-02-28T23:53:08.317Z,3.73
2023-02-28T23:58:09.845Z,3.73
